sensor_id;sensor_type;location;lat;lon;timestamp;P1;durP1;ratioP1;P2;durP2;ratioP2
5569;SDS011;2808;51.240;6.794;2023-03-03T00:02:18;67.83;;;26.00;;
5569;SDS011;2808;51.240;6.794;2023-03-03T00:04:47;61.53;;;25.87;;
5569;SDS011;2808;51.240;6.794;2023-03-03T00:07:15;67.80;;;28.70;;
5569;SDS011;2808;51.240;6.794;2023-03-03T00:09:47;71.87;;;27.20;;
5569;SDS011;2808;51.240;6.794;2023-03-03T00:12:18;71.83;;;27.80;;
5569;SDS011;2808;51.240;6.794;2023-03-03T00:14:50;65.97;;;28.00;;
5569;SDS011;2808;51.240;6.794;2023-03-03T00:17:20;69.87;;;27.17;;
5569;SDS011;2808;51.240;6.794;2023-03-03T00:19:50;66.33;;;28.30;;
5569;SDS011;2808;51.240;6.794;2023-03-03T00:22:30;74.73;;;29.00;;
5569;SDS011;2808;51.240;6.794;2023-03-03T00:25:20;70.60;;;25.47;;
5569;SDS011;2808;51.240;6.794;2023-03-03T00:28:01;65.47;;;26.53;;
5569;SDS011;2808;51.240;6.794;2023-03-03T00:30:41;68.40;;;27.47;;
5569;SDS011;2808;51.240;6.794;2023-03-03T00:33:11;71.37;;;26.43;;
5569;SDS011;2808;51.240;6.794;2023-03-03T00:35:54;65.63;;;26.47;;
5569;SDS011;2808;51.240;6.794;2023-03-03T00:38:22;64.83;;;25.33;;
5569;SDS011;2808;51.240;6.794;2023-03-03T00:40:49;71.20;;;26.00;;
5569;SDS011;2808;51.240;6.794;2023-03-03T00:43:18;67.63;;;26.10;;
5569;SDS011;2808;51.240;6.794;2023-03-03T00:45:47;68.90;;;26.80;;
5569;SDS011;2808;51.240;6.794;2023-03-03T00:48:20;71.30;;;27.90;;
5569;SDS011;2808;51.240;6.794;2023-03-03T00:50:50;71.07;;;26.80;;
5569;SDS011;2808;51.240;6.794;2023-03-03T00:53:20;82.97;;;27.73;;
5569;SDS011;2808;51.240;6.794;2023-03-03T00:55:49;71.03;;;27.60;;
5569;SDS011;2808;51.240;6.794;2023-03-03T00:58:17;77.43;;;28.97;;
5569;SDS011;2808;51.240;6.794;2023-03-03T01:00:47;70.47;;;29.50;;
5569;SDS011;2808;51.240;6.794;2023-03-03T01:03:19;72.43;;;27.73;;
5569;SDS011;2808;51.240;6.794;2023-03-03T01:05:49;76.73;;;28.27;;
5569;SDS011;2808;51.240;6.794;2023-03-03T01:08:17;71.40;;;28.10;;
5569;SDS011;2808;51.240;6.794;2023-03-03T01:10:47;74.23;;;29.10;;
5569;SDS011;2808;51.240;6.794;2023-03-03T01:13:17;77.83;;;27.50;;
5569;SDS011;2808;51.240;6.794;2023-03-03T01:15:47;77.63;;;29.27;;
5569;SDS011;2808;51.240;6.794;2023-03-03T01:18:16;77.27;;;27.97;;
5569;SDS011;2808;51.240;6.794;2023-03-03T01:20:43;70.07;;;26.90;;
5569;SDS011;2808;51.240;6.794;2023-03-03T01:23:13;74.53;;;28.07;;
5569;SDS011;2808;51.240;6.794;2023-03-03T01:25:42;75.70;;;28.57;;
5569;SDS011;2808;51.240;6.794;2023-03-03T01:28:09;78.10;;;28.83;;
5569;SDS011;2808;51.240;6.794;2023-03-03T01:30:37;72.17;;;27.47;;
5569;SDS011;2808;51.240;6.794;2023-03-03T01:33:05;73.13;;;28.43;;
5569;SDS011;2808;51.240;6.794;2023-03-03T01:35:32;80.97;;;29.27;;
5569;SDS011;2808;51.240;6.794;2023-03-03T01:38:00;73.60;;;29.07;;
5569;SDS011;2808;51.240;6.794;2023-03-03T01:40:29;77.63;;;29.43;;
5569;SDS011;2808;51.240;6.794;2023-03-03T01:42:59;78.40;;;27.87;;
5569;SDS011;2808;51.240;6.794;2023-03-03T01:45:28;87.10;;;28.90;;
5569;SDS011;2808;51.240;6.794;2023-03-03T01:48:00;79.83;;;30.20;;
5569;SDS011;2808;51.240;6.794;2023-03-03T01:50:37;70.73;;;29.07;;
5569;SDS011;2808;51.240;6.794;2023-03-03T01:53:11;73.37;;;28.67;;
5569;SDS011;2808;51.240;6.794;2023-03-03T01:55:42;84.43;;;28.63;;
5569;SDS011;2808;51.240;6.794;2023-03-03T01:58:14;89.47;;;31.30;;
5569;SDS011;2808;51.240;6.794;2023-03-03T02:00:47;89.37;;;32.77;;
5569;SDS011;2808;51.240;6.794;2023-03-03T02:03:17;93.73;;;31.90;;
5569;SDS011;2808;51.240;6.794;2023-03-03T02:05:47;96.00;;;33.60;;
5569;SDS011;2808;51.240;6.794;2023-03-03T02:08:17;86.87;;;30.67;;
5569;SDS011;2808;51.240;6.794;2023-03-03T02:10:52;90.27;;;32.20;;
5569;SDS011;2808;51.240;6.794;2023-03-03T02:13:25;91.40;;;30.97;;
5569;SDS011;2808;51.240;6.794;2023-03-03T02:15:53;84.97;;;31.13;;
5569;SDS011;2808;51.240;6.794;2023-03-03T02:18:20;84.27;;;30.30;;
5569;SDS011;2808;51.240;6.794;2023-03-03T02:20:51;80.10;;;31.97;;
5569;SDS011;2808;51.240;6.794;2023-03-03T02:23:26;87.23;;;30.70;;
5569;SDS011;2808;51.240;6.794;2023-03-03T02:26:03;91.60;;;32.17;;
5569;SDS011;2808;51.240;6.794;2023-03-03T02:28:34;82.50;;;30.93;;
5569;SDS011;2808;51.240;6.794;2023-03-03T02:31:04;85.47;;;32.37;;
5569;SDS011;2808;51.240;6.794;2023-03-03T02:33:34;96.67;;;33.30;;
5569;SDS011;2808;51.240;6.794;2023-03-03T02:36:02;95.73;;;32.93;;
5569;SDS011;2808;51.240;6.794;2023-03-03T02:38:31;97.03;;;32.67;;
5569;SDS011;2808;51.240;6.794;2023-03-03T02:41:06;95.30;;;33.20;;
5569;SDS011;2808;51.240;6.794;2023-03-03T02:43:39;90.83;;;31.83;;
5569;SDS011;2808;51.240;6.794;2023-03-03T02:46:13;90.13;;;33.53;;
5569;SDS011;2808;51.240;6.794;2023-03-03T02:48:41;84.63;;;30.67;;
5569;SDS011;2808;51.240;6.794;2023-03-03T02:51:08;96.60;;;34.20;;
5569;SDS011;2808;51.240;6.794;2023-03-03T02:53:36;84.03;;;31.70;;
5569;SDS011;2808;51.240;6.794;2023-03-03T02:56:05;91.33;;;32.33;;
5569;SDS011;2808;51.240;6.794;2023-03-03T02:58:34;90.77;;;32.17;;
5569;SDS011;2808;51.240;6.794;2023-03-03T03:01:01;85.57;;;30.30;;
5569;SDS011;2808;51.240;6.794;2023-03-03T03:03:29;92.77;;;30.73;;
5569;SDS011;2808;51.240;6.794;2023-03-03T03:05:59;100.07;;;33.13;;
5569;SDS011;2808;51.240;6.794;2023-03-03T03:08:27;90.93;;;32.70;;
5569;SDS011;2808;51.240;6.794;2023-03-03T03:10:55;94.43;;;32.77;;
5569;SDS011;2808;51.240;6.794;2023-03-03T03:13:26;90.23;;;32.50;;
5569;SDS011;2808;51.240;6.794;2023-03-03T03:15:54;97.43;;;32.70;;
5569;SDS011;2808;51.240;6.794;2023-03-03T03:18:22;106.33;;;34.63;;
5569;SDS011;2808;51.240;6.794;2023-03-03T03:20:53;96.50;;;34.17;;
5569;SDS011;2808;51.240;6.794;2023-03-03T03:23:20;98.77;;;33.47;;
5569;SDS011;2808;51.240;6.794;2023-03-03T03:25:48;99.10;;;33.80;;
5569;SDS011;2808;51.240;6.794;2023-03-03T03:28:16;95.70;;;31.87;;
5569;SDS011;2808;51.240;6.794;2023-03-03T03:30:49;94.93;;;33.70;;
5569;SDS011;2808;51.240;6.794;2023-03-03T03:33:17;107.33;;;36.93;;
5569;SDS011;2808;51.240;6.794;2023-03-03T03:35:44;120.03;;;38.27;;
5569;SDS011;2808;51.240;6.794;2023-03-03T03:38:12;107.93;;;34.17;;
5569;SDS011;2808;51.240;6.794;2023-03-03T03:40:40;100.60;;;34.23;;
5569;SDS011;2808;51.240;6.794;2023-03-03T03:43:10;116.07;;;37.53;;
5569;SDS011;2808;51.240;6.794;2023-03-03T03:45:38;101.10;;;34.00;;
5569;SDS011;2808;51.240;6.794;2023-03-03T03:48:08;111.23;;;35.93;;
5569;SDS011;2808;51.240;6.794;2023-03-03T03:50:36;102.17;;;35.40;;
5569;SDS011;2808;51.240;6.794;2023-03-03T03:53:04;103.23;;;34.37;;
5569;SDS011;2808;51.240;6.794;2023-03-03T03:55:35;99.43;;;33.50;;
5569;SDS011;2808;51.240;6.794;2023-03-03T03:58:05;116.77;;;36.30;;
5569;SDS011;2808;51.240;6.794;2023-03-03T04:00:33;107.60;;;34.50;;
5569;SDS011;2808;51.240;6.794;2023-03-03T04:03:00;107.20;;;33.20;;
5569;SDS011;2808;51.240;6.794;2023-03-03T04:05:29;107.63;;;33.87;;
5569;SDS011;2808;51.240;6.794;2023-03-03T04:07:59;99.60;;;33.43;;
5569;SDS011;2808;51.240;6.794;2023-03-03T04:10:27;120.47;;;35.80;;
5569;SDS011;2808;51.240;6.794;2023-03-03T04:12:55;111.03;;;33.50;;
5569;SDS011;2808;51.240;6.794;2023-03-03T04:15:23;103.90;;;34.43;;
5569;SDS011;2808;51.240;6.794;2023-03-03T04:17:50;106.90;;;32.80;;
5569;SDS011;2808;51.240;6.794;2023-03-03T04:20:18;106.27;;;33.90;;
5569;SDS011;2808;51.240;6.794;2023-03-03T04:22:47;100.23;;;32.50;;
5569;SDS011;2808;51.240;6.794;2023-03-03T04:25:15;96.80;;;33.47;;
5569;SDS011;2808;51.240;6.794;2023-03-03T04:27:44;111.97;;;33.27;;
5569;SDS011;2808;51.240;6.794;2023-03-03T04:30:14;95.30;;;32.57;;
5569;SDS011;2808;51.240;6.794;2023-03-03T04:32:42;118.07;;;34.30;;
5569;SDS011;2808;51.240;6.794;2023-03-03T04:35:10;95.03;;;32.70;;
5569;SDS011;2808;51.240;6.794;2023-03-03T04:37:37;112.13;;;33.97;;
5569;SDS011;2808;51.240;6.794;2023-03-03T04:40:08;96.67;;;30.60;;
5569;SDS011;2808;51.240;6.794;2023-03-03T04:42:36;102.47;;;31.00;;
5569;SDS011;2808;51.240;6.794;2023-03-03T04:45:04;96.97;;;31.80;;
5569;SDS011;2808;51.240;6.794;2023-03-03T04:47:32;118.07;;;35.20;;
5569;SDS011;2808;51.240;6.794;2023-03-03T04:50:01;95.60;;;31.57;;
5569;SDS011;2808;51.240;6.794;2023-03-03T04:52:29;103.53;;;32.40;;
5569;SDS011;2808;51.240;6.794;2023-03-03T04:54:57;109.27;;;33.03;;
5569;SDS011;2808;51.240;6.794;2023-03-03T04:57:26;111.87;;;35.70;;
5569;SDS011;2808;51.240;6.794;2023-03-03T04:59:54;107.70;;;34.20;;
5569;SDS011;2808;51.240;6.794;2023-03-03T05:02:21;114.10;;;33.67;;
5569;SDS011;2808;51.240;6.794;2023-03-03T05:04:49;118.83;;;33.83;;
5569;SDS011;2808;51.240;6.794;2023-03-03T05:07:16;98.43;;;29.90;;
5569;SDS011;2808;51.240;6.794;2023-03-03T05:09:45;95.90;;;29.83;;
5569;SDS011;2808;51.240;6.794;2023-03-03T05:12:12;77.60;;;27.80;;
5569;SDS011;2808;51.240;6.794;2023-03-03T05:14:43;103.43;;;29.43;;
5569;SDS011;2808;51.240;6.794;2023-03-03T05:17:10;78.43;;;28.23;;
5569;SDS011;2808;51.240;6.794;2023-03-03T05:19:38;94.10;;;28.83;;
5569;SDS011;2808;51.240;6.794;2023-03-03T05:22:05;79.77;;;26.73;;
5569;SDS011;2808;51.240;6.794;2023-03-03T05:24:33;84.13;;;27.30;;
5569;SDS011;2808;51.240;6.794;2023-03-03T05:27:00;81.57;;;26.00;;
5569;SDS011;2808;51.240;6.794;2023-03-03T05:29:28;71.20;;;23.37;;
5569;SDS011;2808;51.240;6.794;2023-03-03T05:31:57;72.33;;;25.03;;
5569;SDS011;2808;51.240;6.794;2023-03-03T05:34:24;72.90;;;22.70;;
5569;SDS011;2808;51.240;6.794;2023-03-03T05:36:52;77.13;;;23.97;;
5569;SDS011;2808;51.240;6.794;2023-03-03T05:39:19;75.50;;;24.03;;
5569;SDS011;2808;51.240;6.794;2023-03-03T05:41:47;71.63;;;22.93;;
5569;SDS011;2808;51.240;6.794;2023-03-03T05:44:15;88.13;;;23.97;;
5569;SDS011;2808;51.240;6.794;2023-03-03T05:46:42;74.07;;;23.70;;
5569;SDS011;2808;51.240;6.794;2023-03-03T05:49:11;79.17;;;25.37;;
5569;SDS011;2808;51.240;6.794;2023-03-03T05:51:39;75.97;;;23.77;;
5569;SDS011;2808;51.240;6.794;2023-03-03T05:54:06;81.23;;;23.90;;
5569;SDS011;2808;51.240;6.794;2023-03-03T05:56:34;84.80;;;25.20;;
5569;SDS011;2808;51.240;6.794;2023-03-03T05:59:07;80.43;;;23.57;;
5569;SDS011;2808;51.240;6.794;2023-03-03T06:01:35;82.33;;;24.20;;
5569;SDS011;2808;51.240;6.794;2023-03-03T06:04:02;76.63;;;24.07;;
5569;SDS011;2808;51.240;6.794;2023-03-03T06:06:37;76.77;;;24.17;;
5569;SDS011;2808;51.240;6.794;2023-03-03T06:09:05;84.63;;;24.07;;
5569;SDS011;2808;51.240;6.794;2023-03-03T06:11:32;80.33;;;23.30;;
5569;SDS011;2808;51.240;6.794;2023-03-03T06:14:01;71.27;;;23.63;;
5569;SDS011;2808;51.240;6.794;2023-03-03T06:16:29;78.37;;;23.50;;
5569;SDS011;2808;51.240;6.794;2023-03-03T06:18:59;83.57;;;22.77;;
5569;SDS011;2808;51.240;6.794;2023-03-03T06:21:26;79.73;;;25.37;;
5569;SDS011;2808;51.240;6.794;2023-03-03T06:23:55;75.43;;;25.00;;
5569;SDS011;2808;51.240;6.794;2023-03-03T06:26:23;68.50;;;22.37;;
5569;SDS011;2808;51.240;6.794;2023-03-03T06:28:50;74.57;;;23.67;;
5569;SDS011;2808;51.240;6.794;2023-03-03T06:31:19;86.50;;;23.97;;
5569;SDS011;2808;51.240;6.794;2023-03-03T06:33:46;74.73;;;23.70;;
5569;SDS011;2808;51.240;6.794;2023-03-03T06:36:15;72.77;;;23.30;;
5569;SDS011;2808;51.240;6.794;2023-03-03T06:38:43;78.17;;;24.40;;
5569;SDS011;2808;51.240;6.794;2023-03-03T06:41:12;53.70;;;20.00;;
5569;SDS011;2808;51.240;6.794;2023-03-03T06:43:40;66.23;;;21.30;;
5569;SDS011;2808;51.240;6.794;2023-03-03T06:46:07;75.50;;;22.50;;
5569;SDS011;2808;51.240;6.794;2023-03-03T06:48:35;60.57;;;19.20;;
5569;SDS011;2808;51.240;6.794;2023-03-03T06:51:08;57.67;;;21.00;;
5569;SDS011;2808;51.240;6.794;2023-03-03T06:53:47;58.93;;;20.13;;
5569;SDS011;2808;51.240;6.794;2023-03-03T06:56:19;62.23;;;20.90;;
5569;SDS011;2808;51.240;6.794;2023-03-03T06:58:47;59.70;;;20.87;;
5569;SDS011;2808;51.240;6.794;2023-03-03T07:01:16;59.10;;;19.90;;
5569;SDS011;2808;51.240;6.794;2023-03-03T07:03:43;63.70;;;19.73;;
5569;SDS011;2808;51.240;6.794;2023-03-03T07:06:16;62.90;;;20.30;;
5569;SDS011;2808;51.240;6.794;2023-03-03T07:08:47;59.07;;;19.97;;
5569;SDS011;2808;51.240;6.794;2023-03-03T07:11:16;66.13;;;22.17;;
5569;SDS011;2808;51.240;6.794;2023-03-03T07:13:46;54.87;;;21.00;;
5569;SDS011;2808;51.240;6.794;2023-03-03T07:16:15;61.80;;;20.90;;
5569;SDS011;2808;51.240;6.794;2023-03-03T07:18:46;58.27;;;19.77;;
5569;SDS011;2808;51.240;6.794;2023-03-03T07:21:18;57.23;;;19.90;;
5569;SDS011;2808;51.240;6.794;2023-03-03T07:23:51;58.27;;;19.47;;
5569;SDS011;2808;51.240;6.794;2023-03-03T07:26:21;54.23;;;19.63;;
5569;SDS011;2808;51.240;6.794;2023-03-03T07:28:54;57.13;;;20.73;;
5569;SDS011;2808;51.240;6.794;2023-03-03T07:31:25;52.93;;;18.80;;
5569;SDS011;2808;51.240;6.794;2023-03-03T07:33:59;59.60;;;19.90;;
5569;SDS011;2808;51.240;6.794;2023-03-03T07:36:28;63.93;;;20.13;;
5569;SDS011;2808;51.240;6.794;2023-03-03T07:39:00;62.87;;;21.80;;
5569;SDS011;2808;51.240;6.794;2023-03-03T07:41:39;66.73;;;20.80;;
5569;SDS011;2808;51.240;6.794;2023-03-03T07:44:11;63.50;;;20.83;;
5569;SDS011;2808;51.240;6.794;2023-03-03T07:46:46;62.47;;;19.40;;
5569;SDS011;2808;51.240;6.794;2023-03-03T07:49:21;57.53;;;20.30;;
5569;SDS011;2808;51.240;6.794;2023-03-03T07:51:56;62.50;;;20.20;;
5569;SDS011;2808;51.240;6.794;2023-03-03T07:54:33;70.03;;;21.70;;
5569;SDS011;2808;51.240;6.794;2023-03-03T07:57:10;67.17;;;21.37;;
5569;SDS011;2808;51.240;6.794;2023-03-03T07:59:45;62.57;;;19.60;;
5569;SDS011;2808;51.240;6.794;2023-03-03T08:02:20;60.17;;;21.03;;
5569;SDS011;2808;51.240;6.794;2023-03-03T08:05:20;64.87;;;21.77;;
5569;SDS011;2808;51.240;6.794;2023-03-03T08:10:53;60.67;;;20.73;;
5569;SDS011;2808;51.240;6.794;2023-03-03T08:13:23;67.10;;;21.17;;
5569;SDS011;2808;51.240;6.794;2023-03-03T08:15:56;60.13;;;20.10;;
5569;SDS011;2808;51.240;6.794;2023-03-03T08:18:27;68.40;;;19.20;;
5569;SDS011;2808;51.240;6.794;2023-03-03T08:20:59;65.67;;;20.77;;
5569;SDS011;2808;51.240;6.794;2023-03-03T08:23:29;74.03;;;22.60;;
5569;SDS011;2808;51.240;6.794;2023-03-03T08:25:56;75.37;;;22.43;;
5569;SDS011;2808;51.240;6.794;2023-03-03T08:28:26;65.23;;;22.10;;
5569;SDS011;2808;51.240;6.794;2023-03-03T08:30:53;71.77;;;21.33;;
5569;SDS011;2808;51.240;6.794;2023-03-03T08:33:21;71.70;;;21.50;;
5569;SDS011;2808;51.240;6.794;2023-03-03T08:35:48;76.27;;;24.23;;
5569;SDS011;2808;51.240;6.794;2023-03-03T08:38:16;72.30;;;24.30;;
5569;SDS011;2808;51.240;6.794;2023-03-03T08:40:47;72.80;;;24.10;;
5569;SDS011;2808;51.240;6.794;2023-03-03T08:43:15;73.33;;;23.63;;
5569;SDS011;2808;51.240;6.794;2023-03-03T08:45:48;66.77;;;21.27;;
5569;SDS011;2808;51.240;6.794;2023-03-03T08:48:17;72.80;;;23.90;;
5569;SDS011;2808;51.240;6.794;2023-03-03T08:50:46;69.07;;;22.57;;
5569;SDS011;2808;51.240;6.794;2023-03-03T08:53:14;78.30;;;25.67;;
5569;SDS011;2808;51.240;6.794;2023-03-03T08:55:42;76.10;;;23.20;;
5569;SDS011;2808;51.240;6.794;2023-03-03T08:58:10;66.73;;;21.87;;
5569;SDS011;2808;51.240;6.794;2023-03-03T09:00:38;71.80;;;23.53;;
5569;SDS011;2808;51.240;6.794;2023-03-03T09:03:07;72.87;;;23.90;;
5569;SDS011;2808;51.240;6.794;2023-03-03T09:05:40;71.27;;;24.33;;
5569;SDS011;2808;51.240;6.794;2023-03-03T09:08:09;72.13;;;24.97;;
5569;SDS011;2808;51.240;6.794;2023-03-03T09:10:37;86.17;;;26.00;;
5569;SDS011;2808;51.240;6.794;2023-03-03T09:13:06;82.47;;;24.87;;
5569;SDS011;2808;51.240;6.794;2023-03-03T09:15:39;73.77;;;25.40;;
5569;SDS011;2808;51.240;6.794;2023-03-03T09:18:12;80.23;;;24.40;;
5569;SDS011;2808;51.240;6.794;2023-03-03T09:20:42;70.93;;;24.40;;
5569;SDS011;2808;51.240;6.794;2023-03-03T09:23:30;74.27;;;23.50;;
5569;SDS011;2808;51.240;6.794;2023-03-03T09:26:12;66.13;;;22.00;;
5569;SDS011;2808;51.240;6.794;2023-03-03T09:28:55;77.37;;;23.73;;
5569;SDS011;2808;51.240;6.794;2023-03-03T09:31:35;77.33;;;22.53;;
5569;SDS011;2808;51.240;6.794;2023-03-03T09:34:17;74.33;;;25.77;;
5569;SDS011;2808;51.240;6.794;2023-03-03T09:36:48;71.60;;;22.90;;
5569;SDS011;2808;51.240;6.794;2023-03-03T09:39:17;66.60;;;20.93;;
5569;SDS011;2808;51.240;6.794;2023-03-03T09:41:51;76.73;;;24.57;;
5569;SDS011;2808;51.240;6.794;2023-03-03T09:44:53;73.07;;;23.77;;
5569;SDS011;2808;51.240;6.794;2023-03-03T09:47:39;69.00;;;22.10;;
5569;SDS011;2808;51.240;6.794;2023-03-03T09:50:18;79.60;;;24.43;;
5569;SDS011;2808;51.240;6.794;2023-03-03T09:52:56;78.83;;;23.07;;
5569;SDS011;2808;51.240;6.794;2023-03-03T09:55:35;73.60;;;23.60;;
5569;SDS011;2808;51.240;6.794;2023-03-03T09:58:28;67.90;;;22.47;;
5569;SDS011;2808;51.240;6.794;2023-03-03T10:01:22;66.10;;;23.10;;
5569;SDS011;2808;51.240;6.794;2023-03-03T10:07:29;77.30;;;22.40;;
5569;SDS011;2808;51.240;6.794;2023-03-03T10:13:17;65.87;;;21.27;;
5569;SDS011;2808;51.240;6.794;2023-03-03T10:15:59;65.20;;;22.10;;
5569;SDS011;2808;51.240;6.794;2023-03-03T10:18:41;71.43;;;20.97;;
5569;SDS011;2808;51.240;6.794;2023-03-03T10:21:22;70.00;;;22.57;;
5569;SDS011;2808;51.240;6.794;2023-03-03T10:24:01;68.77;;;21.80;;
5569;SDS011;2808;51.240;6.794;2023-03-03T10:26:47;67.77;;;19.40;;
5569;SDS011;2808;51.240;6.794;2023-03-03T10:29:30;60.00;;;20.27;;
5569;SDS011;2808;51.240;6.794;2023-03-03T10:32:24;57.07;;;18.10;;
5569;SDS011;2808;51.240;6.794;2023-03-03T10:35:23;61.50;;;19.83;;
5569;SDS011;2808;51.240;6.794;2023-03-03T10:38:07;55.93;;;19.63;;
5569;SDS011;2808;51.240;6.794;2023-03-03T10:40:50;55.60;;;19.80;;
5569;SDS011;2808;51.240;6.794;2023-03-03T10:43:24;62.33;;;21.50;;
5569;SDS011;2808;51.240;6.794;2023-03-03T10:46:28;59.97;;;20.20;;
5569;SDS011;2808;51.240;6.794;2023-03-03T10:52:19;62.77;;;19.20;;
5569;SDS011;2808;51.240;6.794;2023-03-03T10:55:15;58.63;;;20.60;;
5569;SDS011;2808;51.240;6.794;2023-03-03T10:58:03;60.03;;;20.17;;
5569;SDS011;2808;51.240;6.794;2023-03-03T11:00:48;55.17;;;19.83;;
5569;SDS011;2808;51.240;6.794;2023-03-03T11:06:20;56.30;;;18.27;;
5569;SDS011;2808;51.240;6.794;2023-03-03T11:08:58;53.50;;;18.63;;
5569;SDS011;2808;51.240;6.794;2023-03-03T11:11:38;53.77;;;18.63;;
5569;SDS011;2808;51.240;6.794;2023-03-03T11:14:16;55.17;;;18.57;;
5569;SDS011;2808;51.240;6.794;2023-03-03T11:16:59;54.23;;;19.43;;
5569;SDS011;2808;51.240;6.794;2023-03-03T11:19:37;49.60;;;18.70;;
5569;SDS011;2808;51.240;6.794;2023-03-03T11:22:20;57.57;;;21.00;;
5569;SDS011;2808;51.240;6.794;2023-03-03T11:25:00;65.23;;;19.83;;
5569;SDS011;2808;51.240;6.794;2023-03-03T11:27:42;57.53;;;18.93;;
5569;SDS011;2808;51.240;6.794;2023-03-03T11:30:34;50.93;;;17.73;;
5569;SDS011;2808;51.240;6.794;2023-03-03T11:33:26;56.50;;;19.37;;
5569;SDS011;2808;51.240;6.794;2023-03-03T11:36:06;59.97;;;19.20;;
5569;SDS011;2808;51.240;6.794;2023-03-03T11:38:41;51.83;;;18.23;;
5569;SDS011;2808;51.240;6.794;2023-03-03T11:41:22;58.97;;;20.60;;
5569;SDS011;2808;51.240;6.794;2023-03-03T11:43:58;64.33;;;19.90;;
5569;SDS011;2808;51.240;6.794;2023-03-03T11:46:39;66.43;;;18.80;;
5569;SDS011;2808;51.240;6.794;2023-03-03T11:49:13;57.53;;;19.07;;
5569;SDS011;2808;51.240;6.794;2023-03-03T11:51:48;58.57;;;20.43;;
5569;SDS011;2808;51.240;6.794;2023-03-03T11:54:23;63.90;;;19.83;;
5569;SDS011;2808;51.240;6.794;2023-03-03T11:56:57;52.57;;;18.20;;
5569;SDS011;2808;51.240;6.794;2023-03-03T12:02:41;58.60;;;19.10;;
5569;SDS011;2808;51.240;6.794;2023-03-03T12:05:31;58.33;;;18.33;;
5569;SDS011;2808;51.240;6.794;2023-03-03T12:08:13;55.13;;;18.13;;
5569;SDS011;2808;51.240;6.794;2023-03-03T12:10:51;59.43;;;19.03;;
5569;SDS011;2808;51.240;6.794;2023-03-03T12:13:25;52.10;;;16.43;;
5569;SDS011;2808;51.240;6.794;2023-03-03T12:16:03;49.37;;;16.40;;
5569;SDS011;2808;51.240;6.794;2023-03-03T12:18:47;58.17;;;17.37;;
5569;SDS011;2808;51.240;6.794;2023-03-03T12:21:33;55.50;;;18.47;;
5569;SDS011;2808;51.240;6.794;2023-03-03T12:24:18;57.67;;;19.33;;
5569;SDS011;2808;51.240;6.794;2023-03-03T12:27:07;50.03;;;16.83;;
5569;SDS011;2808;51.240;6.794;2023-03-03T12:29:41;44.07;;;15.37;;
5569;SDS011;2808;51.240;6.794;2023-03-03T12:32:17;51.13;;;17.17;;
5569;SDS011;2808;51.240;6.794;2023-03-03T12:35:05;57.90;;;18.23;;
5569;SDS011;2808;51.240;6.794;2023-03-03T12:37:47;50.60;;;18.97;;
5569;SDS011;2808;51.240;6.794;2023-03-03T12:40:25;50.60;;;18.10;;
5569;SDS011;2808;51.240;6.794;2023-03-03T12:43:04;58.17;;;18.13;;
5569;SDS011;2808;51.240;6.794;2023-03-03T12:45:53;59.03;;;18.00;;
5569;SDS011;2808;51.240;6.794;2023-03-03T12:48:27;45.90;;;16.97;;
5569;SDS011;2808;51.240;6.794;2023-03-03T12:51:04;49.10;;;16.60;;
5569;SDS011;2808;51.240;6.794;2023-03-03T12:56:37;47.47;;;17.03;;
5569;SDS011;2808;51.240;6.794;2023-03-03T12:59:11;44.60;;;16.87;;
5569;SDS011;2808;51.240;6.794;2023-03-03T13:01:47;45.53;;;16.53;;
5569;SDS011;2808;51.240;6.794;2023-03-03T13:04:30;53.23;;;18.47;;
5569;SDS011;2808;51.240;6.794;2023-03-03T13:07:08;48.53;;;17.67;;
5569;SDS011;2808;51.240;6.794;2023-03-03T13:09:44;53.63;;;16.77;;
5569;SDS011;2808;51.240;6.794;2023-03-03T13:12:27;47.07;;;17.40;;
5569;SDS011;2808;51.240;6.794;2023-03-03T13:15:12;51.00;;;17.20;;
5569;SDS011;2808;51.240;6.794;2023-03-03T13:17:44;48.70;;;17.00;;
5569;SDS011;2808;51.240;6.794;2023-03-03T13:20:28;50.40;;;17.30;;
5569;SDS011;2808;51.240;6.794;2023-03-03T13:23:07;51.97;;;17.40;;
5569;SDS011;2808;51.240;6.794;2023-03-03T13:25:46;42.47;;;15.73;;
5569;SDS011;2808;51.240;6.794;2023-03-03T13:28:19;50.73;;;15.97;;
5569;SDS011;2808;51.240;6.794;2023-03-03T13:30:52;47.97;;;16.10;;
5569;SDS011;2808;51.240;6.794;2023-03-03T13:33:24;47.70;;;15.80;;
5569;SDS011;2808;51.240;6.794;2023-03-03T13:35:55;53.40;;;18.17;;
5569;SDS011;2808;51.240;6.794;2023-03-03T13:38:29;47.00;;;15.27;;
5569;SDS011;2808;51.240;6.794;2023-03-03T13:41:04;55.70;;;17.60;;
5569;SDS011;2808;51.240;6.794;2023-03-03T13:43:38;41.37;;;16.00;;
5569;SDS011;2808;51.240;6.794;2023-03-03T13:46:15;40.57;;;15.50;;
5569;SDS011;2808;51.240;6.794;2023-03-03T13:48:55;37.40;;;14.67;;
5569;SDS011;2808;51.240;6.794;2023-03-03T13:51:36;42.80;;;18.73;;
5569;SDS011;2808;51.240;6.794;2023-03-03T13:54:20;49.63;;;15.60;;
5569;SDS011;2808;51.240;6.794;2023-03-03T13:57:19;52.57;;;16.90;;
5569;SDS011;2808;51.240;6.794;2023-03-03T14:00:15;36.80;;;14.33;;
5569;SDS011;2808;51.240;6.794;2023-03-03T14:03:08;44.73;;;15.77;;
5569;SDS011;2808;51.240;6.794;2023-03-03T14:05:49;39.80;;;14.17;;
5569;SDS011;2808;51.240;6.794;2023-03-03T14:08:21;47.77;;;16.13;;
5569;SDS011;2808;51.240;6.794;2023-03-03T14:11:02;51.97;;;19.80;;
5569;SDS011;2808;51.240;6.794;2023-03-03T14:13:48;64.20;;;17.93;;
5569;SDS011;2808;51.240;6.794;2023-03-03T14:16:29;43.33;;;16.70;;
5569;SDS011;2808;51.240;6.794;2023-03-03T14:19:09;42.93;;;15.90;;
5569;SDS011;2808;51.240;6.794;2023-03-03T14:21:47;39.33;;;14.43;;
5569;SDS011;2808;51.240;6.794;2023-03-03T14:24:25;49.17;;;18.00;;
5569;SDS011;2808;51.240;6.794;2023-03-03T14:26:55;43.07;;;15.53;;
5569;SDS011;2808;51.240;6.794;2023-03-03T14:29:29;42.20;;;16.00;;
5569;SDS011;2808;51.240;6.794;2023-03-03T14:31:58;53.00;;;18.33;;
5569;SDS011;2808;51.240;6.794;2023-03-03T14:34:34;47.83;;;15.67;;
5569;SDS011;2808;51.240;6.794;2023-03-03T14:37:23;48.13;;;16.60;;
5569;SDS011;2808;51.240;6.794;2023-03-03T14:40:02;38.57;;;15.27;;
5569;SDS011;2808;51.240;6.794;2023-03-03T14:42:45;52.60;;;17.93;;
5569;SDS011;2808;51.240;6.794;2023-03-03T14:45:17;48.77;;;16.97;;
5569;SDS011;2808;51.240;6.794;2023-03-03T14:51:21;47.63;;;16.97;;
5569;SDS011;2808;51.240;6.794;2023-03-03T14:53:51;41.17;;;16.67;;
5569;SDS011;2808;51.240;6.794;2023-03-03T14:56:21;42.27;;;16.30;;
5569;SDS011;2808;51.240;6.794;2023-03-03T14:58:52;48.53;;;16.57;;
5569;SDS011;2808;51.240;6.794;2023-03-03T15:01:42;45.60;;;16.47;;
5569;SDS011;2808;51.240;6.794;2023-03-03T15:04:22;48.63;;;16.87;;
5569;SDS011;2808;51.240;6.794;2023-03-03T15:06:52;50.70;;;17.60;;
5569;SDS011;2808;51.240;6.794;2023-03-03T15:09:24;48.93;;;16.63;;
5569;SDS011;2808;51.240;6.794;2023-03-03T15:11:59;40.13;;;15.87;;
5569;SDS011;2808;51.240;6.794;2023-03-03T15:14:31;45.60;;;16.60;;
5569;SDS011;2808;51.240;6.794;2023-03-03T15:17:18;45.30;;;16.20;;
5569;SDS011;2808;51.240;6.794;2023-03-03T15:19:53;37.40;;;15.93;;
5569;SDS011;2808;51.240;6.794;2023-03-03T15:22:41;39.07;;;15.33;;
5569;SDS011;2808;51.240;6.794;2023-03-03T15:25:15;55.53;;;19.47;;
5569;SDS011;2808;51.240;6.794;2023-03-03T15:27:48;43.70;;;16.80;;
5569;SDS011;2808;51.240;6.794;2023-03-03T15:30:32;44.77;;;18.17;;
5569;SDS011;2808;51.240;6.794;2023-03-03T15:33:09;45.00;;;17.57;;
5569;SDS011;2808;51.240;6.794;2023-03-03T15:35:49;45.67;;;17.30;;
5569;SDS011;2808;51.240;6.794;2023-03-03T15:38:31;44.27;;;17.83;;
5569;SDS011;2808;51.240;6.794;2023-03-03T15:41:10;46.60;;;19.70;;
5569;SDS011;2808;51.240;6.794;2023-03-03T15:43:55;51.50;;;21.23;;
5569;SDS011;2808;51.240;6.794;2023-03-03T15:46:32;48.10;;;19.57;;
5569;SDS011;2808;51.240;6.794;2023-03-03T15:49:15;47.87;;;18.77;;
5569;SDS011;2808;51.240;6.794;2023-03-03T15:51:59;42.53;;;18.53;;